sensor_id;sensor_type;location;lat;lon;timestamp;temperature;humidity
30250;DHT22;17064;47.974;13.826;2023-12-22T00:05:15;4.30;99.90
30250;DHT22;17064;47.974;13.826;2023-12-22T00:10:35;4.50;99.90
30250;DHT22;17064;47.974;13.826;2023-12-22T00:15:54;4.70;99.90
30250;DHT22;17064;47.974;13.826;2023-12-22T00:21:13;4.70;99.90
30250;DHT22;17064;47.974;13.826;2023-12-22T00:26:32;4.70;99.90
30250;DHT22;17064;47.974;13.826;2023-12-22T00:31:52;4.60;99.90
30250;DHT22;17064;47.974;13.826;2023-12-22T00:37:11;4.40;99.90
30250;DHT22;17064;47.974;13.826;2023-12-22T00:42:31;4.30;99.90
30250;DHT22;17064;47.974;13.826;2023-12-22T00:47:50;4.20;99.90
30250;DHT22;17064;47.974;13.826;2023-12-22T00:53:09;4.10;99.90
30250;DHT22;17064;47.974;13.826;2023-12-22T00:58:30;4.00;99.90
30250;DHT22;17064;47.974;13.826;2023-12-22T01:03:49;3.90;99.90
30250;DHT22;17064;47.974;13.826;2023-12-22T01:09:08;3.90;99.90
30250;DHT22;17064;47.974;13.826;2023-12-22T01:14:27;4.00;99.90
30250;DHT22;17064;47.974;13.826;2023-12-22T01:19:46;4.00;99.90
30250;DHT22;17064;47.974;13.826;2023-12-22T01:25:06;3.90;99.90
30250;DHT22;17064;47.974;13.826;2023-12-22T01:30:25;3.80;99.90
30250;DHT22;17064;47.974;13.826;2023-12-22T01:35:44;3.60;99.90
30250;DHT22;17064;47.974;13.826;2023-12-22T01:41:03;3.60;99.90
30250;DHT22;17064;47.974;13.826;2023-12-22T01:46:22;3.50;99.90
30250;DHT22;17064;47.974;13.826;2023-12-22T01:51:42;3.40;99.90
30250;DHT22;17064;47.974;13.826;2023-12-22T01:57:02;3.30;99.90
30250;DHT22;17064;47.974;13.826;2023-12-22T02:02:22;3.20;99.90
30250;DHT22;17064;47.974;13.826;2023-12-22T02:07:42;3.20;99.90
30250;DHT22;17064;47.974;13.826;2023-12-22T02:13:02;3.20;99.90
30250;DHT22;17064;47.974;13.826;2023-12-22T02:18:26;3.20;99.90
30250;DHT22;17064;47.974;13.826;2023-12-22T02:23:47;3.20;99.90
30250;DHT22;17064;47.974;13.826;2023-12-22T02:29:08;3.20;99.90
30250;DHT22;17064;47.974;13.826;2023-12-22T02:34:29;3.30;99.90
30250;DHT22;17064;47.974;13.826;2023-12-22T02:39:51;3.20;99.90
30250;DHT22;17064;47.974;13.826;2023-12-22T02:45:14;3.20;99.90
30250;DHT22;17064;47.974;13.826;2023-12-22T02:50:34;3.30;99.90
30250;DHT22;17064;47.974;13.826;2023-12-22T02:55:53;3.30;99.90
30250;DHT22;17064;47.974;13.826;2023-12-22T03:01:12;3.30;99.90
30250;DHT22;17064;47.974;13.826;2023-12-22T03:06:31;3.30;99.90
30250;DHT22;17064;47.974;13.826;2023-12-22T03:11:51;3.20;99.90
30250;DHT22;17064;47.974;13.826;2023-12-22T03:17:13;3.20;99.90
30250;DHT22;17064;47.974;13.826;2023-12-22T03:22:33;3.20;99.90
30250;DHT22;17064;47.974;13.826;2023-12-22T03:27:52;3.10;99.90
30250;DHT22;17064;47.974;13.826;2023-12-22T03:33:11;2.90;99.90
30250;DHT22;17064;47.974;13.826;2023-12-22T03:38:31;2.70;99.90
30250;DHT22;17064;47.974;13.826;2023-12-22T03:43:51;2.50;99.90
30250;DHT22;17064;47.974;13.826;2023-12-22T03:49:09;2.40;99.90
30250;DHT22;17064;47.974;13.826;2023-12-22T03:54:29;2.30;99.90
30250;DHT22;17064;47.974;13.826;2023-12-22T03:59:48;2.20;99.90
30250;DHT22;17064;47.974;13.826;2023-12-22T04:05:07;2.20;99.90
30250;DHT22;17064;47.974;13.826;2023-12-22T04:10:27;2.10;99.90
30250;DHT22;17064;47.974;13.826;2023-12-22T04:15:46;2.00;99.90
30250;DHT22;17064;47.974;13.826;2023-12-22T04:21:06;2.00;99.90
30250;DHT22;17064;47.974;13.826;2023-12-22T04:26:25;1.90;99.90
30250;DHT22;17064;47.974;13.826;2023-12-22T04:31:44;1.90;99.90
30250;DHT22;17064;47.974;13.826;2023-12-22T04:37:03;1.70;99.90
30250;DHT22;17064;47.974;13.826;2023-12-22T04:42:22;1.70;99.90
30250;DHT22;17064;47.974;13.826;2023-12-22T04:47:43;1.60;99.90
30250;DHT22;17064;47.974;13.826;2023-12-22T04:53:03;1.60;99.90
30250;DHT22;17064;47.974;13.826;2023-12-22T04:58:22;1.70;99.90
30250;DHT22;17064;47.974;13.826;2023-12-22T05:03:41;1.90;99.90
30250;DHT22;17064;47.974;13.826;2023-12-22T05:09:01;2.00;99.90
30250;DHT22;17064;47.974;13.826;2023-12-22T05:14:22;2.10;99.90
30250;DHT22;17064;47.974;13.826;2023-12-22T05:19:41;2.10;99.90
30250;DHT22;17064;47.974;13.826;2023-12-22T05:25:00;2.00;99.90
30250;DHT22;17064;47.974;13.826;2023-12-22T05:30:20;2.00;99.90
30250;DHT22;17064;47.974;13.826;2023-12-22T05:35:40;2.00;99.90
30250;DHT22;17064;47.974;13.826;2023-12-22T05:40:59;1.90;99.90
30250;DHT22;17064;47.974;13.826;2023-12-22T05:46:18;1.80;99.90
30250;DHT22;17064;47.974;13.826;2023-12-22T05:51:40;1.80;99.90
30250;DHT22;17064;47.974;13.826;2023-12-22T05:57:00;1.70;99.90
30250;DHT22;17064;47.974;13.826;2023-12-22T06:02:19;1.60;99.90
30250;DHT22;17064;47.974;13.826;2023-12-22T06:07:38;1.60;99.90
30250;DHT22;17064;47.974;13.826;2023-12-22T06:12:58;1.50;99.90
30250;DHT22;17064;47.974;13.826;2023-12-22T06:18:17;1.40;99.90
30250;DHT22;17064;47.974;13.826;2023-12-22T06:23:37;1.30;99.90
30250;DHT22;17064;47.974;13.826;2023-12-22T06:28:56;1.20;99.90
30250;DHT22;17064;47.974;13.826;2023-12-22T06:34:17;1.10;99.90
30250;DHT22;17064;47.974;13.826;2023-12-22T06:39:36;1.10;99.90
30250;DHT22;17064;47.974;13.826;2023-12-22T06:44:55;1.10;99.90
30250;DHT22;17064;47.974;13.826;2023-12-22T06:50:15;1.20;99.90
30250;DHT22;17064;47.974;13.826;2023-12-22T06:55:34;1.30;99.90
30250;DHT22;17064;47.974;13.826;2023-12-22T07:00:53;1.40;99.90
30250;DHT22;17064;47.974;13.826;2023-12-22T07:06:12;1.40;99.90
30250;DHT22;17064;47.974;13.826;2023-12-22T07:11:31;1.40;99.90
30250;DHT22;17064;47.974;13.826;2023-12-22T07:16:50;1.40;99.90
30250;DHT22;17064;47.974;13.826;2023-12-22T07:22:09;1.40;99.90
30250;DHT22;17064;47.974;13.826;2023-12-22T07:27:28;1.50;99.90
30250;DHT22;17064;47.974;13.826;2023-12-22T07:32:47;1.60;99.90
30250;DHT22;17064;47.974;13.826;2023-12-22T07:38:10;1.70;99.90
30250;DHT22;17064;47.974;13.826;2023-12-22T07:43:30;1.90;99.90
30250;DHT22;17064;47.974;13.826;2023-12-22T07:48:49;1.90;99.90
30250;DHT22;17064;47.974;13.826;2023-12-22T07:54:09;1.90;99.90
30250;DHT22;17064;47.974;13.826;2023-12-22T07:59:28;2.00;99.90
30250;DHT22;17064;47.974;13.826;2023-12-22T08:04:48;2.00;99.90
30250;DHT22;17064;47.974;13.826;2023-12-22T08:10:08;2.00;99.90
30250;DHT22;17064;47.974;13.826;2023-12-22T08:15:27;2.10;99.90
30250;DHT22;17064;47.974;13.826;2023-12-22T08:20:46;2.00;99.90
30250;DHT22;17064;47.974;13.826;2023-12-22T08:26:08;2.00;99.90
30250;DHT22;17064;47.974;13.826;2023-12-22T08:31:27;1.90;99.90
30250;DHT22;17064;47.974;13.826;2023-12-22T08:36:47;1.90;99.90
30250;DHT22;17064;47.974;13.826;2023-12-22T08:42:06;1.80;99.90
30250;DHT22;17064;47.974;13.826;2023-12-22T08:47:25;1.80;99.90
30250;DHT22;17064;47.974;13.826;2023-12-22T08:52:44;1.90;99.90
30250;DHT22;17064;47.974;13.826;2023-12-22T08:58:04;2.00;99.90
30250;DHT22;17064;47.974;13.826;2023-12-22T09:03:23;2.00;99.90
30250;DHT22;17064;47.974;13.826;2023-12-22T09:08:43;2.10;99.90
30250;DHT22;17064;47.974;13.826;2023-12-22T09:14:04;2.20;99.90
30250;DHT22;17064;47.974;13.826;2023-12-22T09:19:23;2.20;99.90
30250;DHT22;17064;47.974;13.826;2023-12-22T09:24:42;2.30;99.90
30250;DHT22;17064;47.974;13.826;2023-12-22T09:30:02;2.40;99.90
30250;DHT22;17064;47.974;13.826;2023-12-22T09:35:21;2.40;99.90
30250;DHT22;17064;47.974;13.826;2023-12-22T09:40:41;2.60;99.90
30250;DHT22;17064;47.974;13.826;2023-12-22T09:46:01;2.70;99.90
30250;DHT22;17064;47.974;13.826;2023-12-22T09:51:22;2.90;99.90
30250;DHT22;17064;47.974;13.826;2023-12-22T09:56:42;3.00;99.90
30250;DHT22;17064;47.974;13.826;2023-12-22T10:02:02;3.20;99.90
30250;DHT22;17064;47.974;13.826;2023-12-22T10:07:23;3.30;99.90
30250;DHT22;17064;47.974;13.826;2023-12-22T10:12:45;3.40;99.90
30250;DHT22;17064;47.974;13.826;2023-12-22T10:18:05;3.50;99.90
30250;DHT22;17064;47.974;13.826;2023-12-22T10:23:24;3.60;99.90
30250;DHT22;17064;47.974;13.826;2023-12-22T10:28:43;3.70;99.90
30250;DHT22;17064;47.974;13.826;2023-12-22T10:34:05;3.80;99.90
30250;DHT22;17064;47.974;13.826;2023-12-22T10:39:28;3.80;99.90
30250;DHT22;17064;47.974;13.826;2023-12-22T10:44:52;3.80;99.90
30250;DHT22;17064;47.974;13.826;2023-12-22T10:50:12;3.90;99.90
30250;DHT22;17064;47.974;13.826;2023-12-22T10:55:34;3.80;99.90
30250;DHT22;17064;47.974;13.826;2023-12-22T11:00:54;3.80;99.90
30250;DHT22;17064;47.974;13.826;2023-12-22T11:06:15;3.80;99.90
30250;DHT22;17064;47.974;13.826;2023-12-22T11:11:39;3.70;99.90
30250;DHT22;17064;47.974;13.826;2023-12-22T11:17:00;3.70;99.90
30250;DHT22;17064;47.974;13.826;2023-12-22T11:22:21;3.60;99.90
30250;DHT22;17064;47.974;13.826;2023-12-22T11:27:41;3.50;99.90
30250;DHT22;17064;47.974;13.826;2023-12-22T11:33:01;3.50;99.90
30250;DHT22;17064;47.974;13.826;2023-12-22T11:38:21;3.40;99.90
30250;DHT22;17064;47.974;13.826;2023-12-22T11:43:41;3.40;99.90
30250;DHT22;17064;47.974;13.826;2023-12-22T11:49:01;3.40;99.90
30250;DHT22;17064;47.974;13.826;2023-12-22T12:00:06;3.40;99.90
30250;DHT22;17064;47.974;13.826;2023-12-22T12:05:27;3.50;99.90
30250;DHT22;17064;47.974;13.826;2023-12-22T12:10:52;3.50;99.90
30250;DHT22;17064;47.974;13.826;2023-12-22T12:16:15;3.50;99.90
30250;DHT22;17064;47.974;13.826;2023-12-22T12:21:35;3.60;99.90
30250;DHT22;17064;47.974;13.826;2023-12-22T12:26:54;3.70;99.90
30250;DHT22;17064;47.974;13.826;2023-12-22T12:32:14;3.80;99.90
30250;DHT22;17064;47.974;13.826;2023-12-22T12:37:34;3.90;99.90
30250;DHT22;17064;47.974;13.826;2023-12-22T12:42:55;4.00;99.90
30250;DHT22;17064;47.974;13.826;2023-12-22T12:48:16;4.00;99.90
30250;DHT22;17064;47.974;13.826;2023-12-22T12:53:38;4.10;99.90
30250;DHT22;17064;47.974;13.826;2023-12-22T12:58:57;4.00;99.90
30250;DHT22;17064;47.974;13.826;2023-12-22T13:04:18;4.00;99.90
30250;DHT22;17064;47.974;13.826;2023-12-22T13:09:37;4.10;99.90
30250;DHT22;17064;47.974;13.826;2023-12-22T13:15:02;4.00;99.90
30250;DHT22;17064;47.974;13.826;2023-12-22T13:20:22;3.90;99.90
30250;DHT22;17064;47.974;13.826;2023-12-22T13:25:41;3.80;99.90
30250;DHT22;17064;47.974;13.826;2023-12-22T13:31:01;3.80;99.90
30250;DHT22;17064;47.974;13.826;2023-12-22T13:36:20;3.90;99.90
30250;DHT22;17064;47.974;13.826;2023-12-22T13:41:41;3.80;99.90
30250;DHT22;17064;47.974;13.826;2023-12-22T13:47:05;4.00;99.90
30250;DHT22;17064;47.974;13.826;2023-12-22T13:52:31;4.30;99.90
30250;DHT22;17064;47.974;13.826;2023-12-22T13:58:00;4.50;99.90
30250;DHT22;17064;47.974;13.826;2023-12-22T14:03:20;4.80;99.90
30250;DHT22;17064;47.974;13.826;2023-12-22T14:08:42;5.00;99.90
30250;DHT22;17064;47.974;13.826;2023-12-22T14:14:02;5.20;99.90
30250;DHT22;17064;47.974;13.826;2023-12-22T14:19:21;5.30;99.90
30250;DHT22;17064;47.974;13.826;2023-12-22T14:24:40;5.30;99.90
30250;DHT22;17064;47.974;13.826;2023-12-22T14:29:59;5.30;99.90
30250;DHT22;17064;47.974;13.826;2023-12-22T14:35:18;5.30;99.90
30250;DHT22;17064;47.974;13.826;2023-12-22T14:40:38;5.30;99.90
30250;DHT22;17064;47.974;13.826;2023-12-22T14:45:57;5.30;99.90
30250;DHT22;17064;47.974;13.826;2023-12-22T14:51:16;5.20;99.90
30250;DHT22;17064;47.974;13.826;2023-12-22T14:56:38;5.20;99.90
30250;DHT22;17064;47.974;13.826;2023-12-22T15:01:59;5.30;99.90
30250;DHT22;17064;47.974;13.826;2023-12-22T15:07:19;5.20;99.90
30250;DHT22;17064;47.974;13.826;2023-12-22T15:12:38;5.30;99.90
30250;DHT22;17064;47.974;13.826;2023-12-22T15:18:02;5.30;99.90
30250;DHT22;17064;47.974;13.826;2023-12-22T15:23:21;5.30;99.90
30250;DHT22;17064;47.974;13.826;2023-12-22T15:28:40;5.30;99.90
30250;DHT22;17064;47.974;13.826;2023-12-22T15:34:00;5.20;99.90
30250;DHT22;17064;47.974;13.826;2023-12-22T15:39:19;5.10;99.90
30250;DHT22;17064;47.974;13.826;2023-12-22T15:44:40;4.90;99.90
30250;DHT22;17064;47.974;13.826;2023-12-22T15:50:00;4.80;99.90
30250;DHT22;17064;47.974;13.826;2023-12-22T15:55:19;4.70;99.90
30250;DHT22;17064;47.974;13.826;2023-12-22T16:00:38;4.70;99.90
30250;DHT22;17064;47.974;13.826;2023-12-22T16:05:57;4.70;99.90
30250;DHT22;17064;47.974;13.826;2023-12-22T16:11:19;4.70;99.90
30250;DHT22;17064;47.974;13.826;2023-12-22T16:16:38;4.70;99.90
30250;DHT22;17064;47.974;13.826;2023-12-22T16:21:58;4.80;99.90
30250;DHT22;17064;47.974;13.826;2023-12-22T16:27:17;4.90;99.90
30250;DHT22;17064;47.974;13.826;2023-12-22T16:32:36;5.00;99.90
30250;DHT22;17064;47.974;13.826;2023-12-22T16:37:56;5.10;99.90
30250;DHT22;17064;47.974;13.826;2023-12-22T16:43:15;5.20;99.90
30250;DHT22;17064;47.974;13.826;2023-12-22T16:48:34;5.30;99.90
30250;DHT22;17064;47.974;13.826;2023-12-22T16:53:54;5.50;99.90
30250;DHT22;17064;47.974;13.826;2023-12-22T16:59:16;5.60;99.90
30250;DHT22;17064;47.974;13.826;2023-12-22T17:04:35;5.70;99.90
30250;DHT22;17064;47.974;13.826;2023-12-22T17:09:54;5.70;99.90
30250;DHT22;17064;47.974;13.826;2023-12-22T17:15:14;5.70;99.90
30250;DHT22;17064;47.974;13.826;2023-12-22T17:20:33;5.70;99.90
30250;DHT22;17064;47.974;13.826;2023-12-22T17:25:52;5.70;99.90
30250;DHT22;17064;47.974;13.826;2023-12-22T17:31:11;5.80;99.90
30250;DHT22;17064;47.974;13.826;2023-12-22T17:36:31;5.80;99.90
30250;DHT22;17064;47.974;13.826;2023-12-22T17:41:52;5.90;99.90
30250;DHT22;17064;47.974;13.826;2023-12-22T17:47:11;5.80;99.90
30250;DHT22;17064;47.974;13.826;2023-12-22T17:52:30;5.90;99.90
30250;DHT22;17064;47.974;13.826;2023-12-22T17:57:49;5.80;99.90
30250;DHT22;17064;47.974;13.826;2023-12-22T18:03:08;5.80;99.90
30250;DHT22;17064;47.974;13.826;2023-12-22T18:08:27;5.80;99.90
30250;DHT22;17064;47.974;13.826;2023-12-22T18:13:46;5.70;99.90
30250;DHT22;17064;47.974;13.826;2023-12-22T18:19:05;5.80;99.90
30250;DHT22;17064;47.974;13.826;2023-12-22T18:24:24;5.90;99.90
30250;DHT22;17064;47.974;13.826;2023-12-22T18:29:44;6.00;99.90
30250;DHT22;17064;47.974;13.826;2023-12-22T18:35:04;5.90;99.90
30250;DHT22;17064;47.974;13.826;2023-12-22T18:40:24;6.00;99.90
30250;DHT22;17064;47.974;13.826;2023-12-22T18:45:43;6.00;99.90
30250;DHT22;17064;47.974;13.826;2023-12-22T18:51:03;6.00;99.90
30250;DHT22;17064;47.974;13.826;2023-12-22T18:56:23;6.10;99.90
30250;DHT22;17064;47.974;13.826;2023-12-22T19:01:44;6.10;99.90
30250;DHT22;17064;47.974;13.826;2023-12-22T19:07:03;6.10;99.90
30250;DHT22;17064;47.974;13.826;2023-12-22T19:12:23;6.10;99.90
30250;DHT22;17064;47.974;13.826;2023-12-22T19:17:42;6.20;99.90
30250;DHT22;17064;47.974;13.826;2023-12-22T19:23:02;6.20;99.90
30250;DHT22;17064;47.974;13.826;2023-12-22T19:28:21;6.30;99.90
30250;DHT22;17064;47.974;13.826;2023-12-22T19:33:41;6.30;99.90
30250;DHT22;17064;47.974;13.826;2023-12-22T19:39:00;6.40;99.90
30250;DHT22;17064;47.974;13.826;2023-12-22T19:44:20;6.50;99.90
30250;DHT22;17064;47.974;13.826;2023-12-22T19:49:40;6.60;99.90
30250;DHT22;17064;47.974;13.826;2023-12-22T19:55:00;6.60;99.90
30250;DHT22;17064;47.974;13.826;2023-12-22T20:00:21;6.60;99.90
30250;DHT22;17064;47.974;13.826;2023-12-22T20:05:40;6.60;99.90
30250;DHT22;17064;47.974;13.826;2023-12-22T20:11:02;6.60;99.90
30250;DHT22;17064;47.974;13.826;2023-12-22T20:16:21;6.70;99.90
30250;DHT22;17064;47.974;13.826;2023-12-22T20:21:42;6.70;99.90
30250;DHT22;17064;47.974;13.826;2023-12-22T20:27:03;6.70;99.90
30250;DHT22;17064;47.974;13.826;2023-12-22T20:32:22;6.70;99.90
30250;DHT22;17064;47.974;13.826;2023-12-22T20:37:42;6.70;99.90
30250;DHT22;17064;47.974;13.826;2023-12-22T20:43:02;6.70;99.90
30250;DHT22;17064;47.974;13.826;2023-12-22T20:48:21;6.80;99.90
30250;DHT22;17064;47.974;13.826;2023-12-22T20:53:41;6.90;99.90
30250;DHT22;17064;47.974;13.826;2023-12-22T20:59:00;7.00;99.90
30250;DHT22;17064;47.974;13.826;2023-12-22T21:04:19;6.90;99.90
30250;DHT22;17064;47.974;13.826;2023-12-22T21:09:38;6.90;99.90
30250;DHT22;17064;47.974;13.826;2023-12-22T21:14:58;7.00;99.90
30250;DHT22;17064;47.974;13.826;2023-12-22T21:20:17;7.00;99.90
30250;DHT22;17064;47.974;13.826;2023-12-22T21:25:37;7.00;99.90
30250;DHT22;17064;47.974;13.826;2023-12-22T21:30:56;7.00;99.90
30250;DHT22;17064;47.974;13.826;2023-12-22T21:36:22;7.00;99.90
30250;DHT22;17064;47.974;13.826;2023-12-22T21:41:42;7.00;99.90
30250;DHT22;17064;47.974;13.826;2023-12-22T21:47:01;7.00;99.90
30250;DHT22;17064;47.974;13.826;2023-12-22T21:52:20;7.00;99.90
30250;DHT22;17064;47.974;13.826;2023-12-22T21:57:43;7.00;99.90
30250;DHT22;17064;47.974;13.826;2023-12-22T22:03:02;7.00;99.90
30250;DHT22;17064;47.974;13.826;2023-12-22T22:08:21;7.10;99.90
30250;DHT22;17064;47.974;13.826;2023-12-22T22:13:41;7.00;99.90
30250;DHT22;17064;47.974;13.826;2023-12-22T22:19:00;7.00;99.90
30250;DHT22;17064;47.974;13.826;2023-12-22T22:24:20;7.00;99.90
30250;DHT22;17064;47.974;13.826;2023-12-22T22:29:40;7.00;99.90
30250;DHT22;17064;47.974;13.826;2023-12-22T22:35:01;7.00;99.90
30250;DHT22;17064;47.974;13.826;2023-12-22T22:40:20;7.00;99.90
30250;DHT22;17064;47.974;13.826;2023-12-22T22:45:39;7.10;99.90
30250;DHT22;17064;47.974;13.826;2023-12-22T22:51:00;7.20;99.90
30250;DHT22;17064;47.974;13.826;2023-12-22T22:56:19;7.20;99.90
30250;DHT22;17064;47.974;13.826;2023-12-22T23:01:45;7.20;99.90
30250;DHT22;17064;47.974;13.826;2023-12-22T23:07:05;7.30;99.90
30250;DHT22;17064;47.974;13.826;2023-12-22T23:12:25;7.40;99.90
30250;DHT22;17064;47.974;13.826;2023-12-22T23:17:44;7.40;99.90
30250;DHT22;17064;47.974;13.826;2023-12-22T23:23:03;7.40;99.90
30250;DHT22;17064;47.974;13.826;2023-12-22T23:28:23;7.40;99.90
30250;DHT22;17064;47.974;13.826;2023-12-22T23:33:42;7.50;99.90
30250;DHT22;17064;47.974;13.826;2023-12-22T23:39:01;7.40;99.90
30250;DHT22;17064;47.974;13.826;2023-12-22T23:44:21;7.40;99.90
30250;DHT22;17064;47.974;13.826;2023-12-22T23:49:40;7.50;99.90
30250;DHT22;17064;47.974;13.826;2023-12-22T23:54:59;7.40;99.90
